createdAt,value
2019-03-26T00:01:50.560Z,4.23
2019-03-26T00:04:20.449Z,4.80
2019-03-26T00:06:50.050Z,3.83
2019-03-26T00:09:19.904Z,4.13
2019-03-26T00:11:50.603Z,4.10
2019-03-26T00:14:23.880Z,3.83
2019-03-26T00:16:53.390Z,4.30
2019-03-26T00:19:23.932Z,4.27
2019-03-26T00:21:53.786Z,4.07
2019-03-26T00:24:23.766Z,4.73
2019-03-26T00:26:53.432Z,4.63
2019-03-26T00:29:27.675Z,5.43
2019-03-26T00:31:57.543Z,3.83
2019-03-26T00:34:27.490Z,3.80
2019-03-26T00:36:57.120Z,4.00
2019-03-26T00:39:26.888Z,3.83
2019-03-26T00:41:58.519Z,4.30
2019-03-26T00:44:28.424Z,4.00
2019-03-26T00:46:58.056Z,4.57
2019-03-26T00:49:27.929Z,4.10
2019-03-26T00:51:58.032Z,4.53
2019-03-26T00:54:27.708Z,4.50
2019-03-26T00:56:57.563Z,5.20
2019-03-26T00:59:27.300Z,4.10
2019-03-26T01:01:56.992Z,3.50
2019-03-26T01:04:32.834Z,3.33
2019-03-26T01:06:58.632Z,4.10
2019-03-26T01:09:28.526Z,3.60
2019-03-26T01:11:58.073Z,3.47
2019-03-26T01:14:27.686Z,3.70
2019-03-26T01:16:58.104Z,4.00
2019-03-26T01:19:28.558Z,3.63
2019-03-26T01:21:59.007Z,4.15
2019-03-26T01:24:29.048Z,4.10
2019-03-26T01:27:17.584Z,4.27
2019-03-26T01:29:47.180Z,3.80
2019-03-26T01:32:18.521Z,3.73
2019-03-26T01:34:49.591Z,3.90
2019-03-26T01:37:34.144Z,3.87
2019-03-26T01:40:05.452Z,4.15
2019-03-26T01:42:35.072Z,4.43
2019-03-26T01:45:05.280Z,4.20
2019-03-26T01:47:36.095Z,4.73
2019-03-26T01:50:07.139Z,4.43
2019-03-26T01:52:37.036Z,4.03
2019-03-26T01:55:07.846Z,4.83
2019-03-26T01:57:37.412Z,4.37
2019-03-26T02:00:07.371Z,4.97
2019-03-26T02:02:36.963Z,5.53
2019-03-26T02:05:07.100Z,4.87
2019-03-26T02:07:38.925Z,4.90
2019-03-26T02:10:10.034Z,4.97
2019-03-26T02:12:40.748Z,5.30
2019-03-26T02:15:13.774Z,5.70
2019-03-26T02:17:43.353Z,5.40
2019-03-26T02:20:14.056Z,5.30
2019-03-26T02:22:43.549Z,4.85
2019-03-26T02:25:13.145Z,5.10
2019-03-26T02:27:42.840Z,4.70
2019-03-26T02:30:12.571Z,4.53
2019-03-26T02:32:42.176Z,4.33
2019-03-26T02:35:18.343Z,4.63
2019-03-26T02:37:44.029Z,3.37
2019-03-26T02:40:14.445Z,4.00
2019-03-26T02:42:44.547Z,2.85
2019-03-26T02:45:14.456Z,3.13
2019-03-26T02:47:44.080Z,2.30
2019-03-26T02:50:14.063Z,2.40
2019-03-26T02:52:43.696Z,2.70
2019-03-26T02:55:13.445Z,2.40
2019-03-26T02:57:43.025Z,2.08
2019-03-26T03:00:16.680Z,2.13
2019-03-26T03:02:46.624Z,2.40
2019-03-26T03:05:33.821Z,2.00
2019-03-26T03:08:09.920Z,2.40
2019-03-26T03:10:39.581Z,1.95
2019-03-26T03:13:09.193Z,2.07
2019-03-26T03:15:38.824Z,2.20
2019-03-26T03:18:09.784Z,2.33
2019-03-26T03:20:40.168Z,2.10
2019-03-26T03:23:09.923Z,2.47
2019-03-26T03:25:39.720Z,2.53
2019-03-26T03:28:09.476Z,2.97
2019-03-26T03:30:39.338Z,3.63
2019-03-26T03:33:09.389Z,6.10
2019-03-26T03:35:51.977Z,6.50
2019-03-26T03:38:12.174Z,5.50
2019-03-26T03:40:42.631Z,5.27
2019-03-26T03:43:12.208Z,4.90
2019-03-26T03:45:42.175Z,3.60
2019-03-26T03:48:11.969Z,4.10
2019-03-26T03:50:43.621Z,3.40
2019-03-26T03:53:16.877Z,3.80
2019-03-26T03:55:47.973Z,3.50
2019-03-26T03:58:19.251Z,3.57
2019-03-26T04:00:48.890Z,3.90
2019-03-26T04:03:18.700Z,3.80
2019-03-26T04:06:08.243Z,4.10
2019-03-26T04:08:23.908Z,3.60
2019-03-26T04:10:53.928Z,4.20
2019-03-26T04:13:23.847Z,3.60
2019-03-26T04:15:53.641Z,3.70
2019-03-26T04:18:23.296Z,4.50
2019-03-26T04:20:52.948Z,3.13
2019-03-26T04:23:22.569Z,3.40
2019-03-26T04:25:52.405Z,3.90
2019-03-26T04:28:22.293Z,3.92
2019-03-26T04:30:51.949Z,3.53
2019-03-26T04:33:22.371Z,3.27
2019-03-26T04:35:52.265Z,3.67
2019-03-26T04:38:22.236Z,4.03
2019-03-26T04:40:55.048Z,4.00
2019-03-26T04:43:24.735Z,3.07
2019-03-26T04:45:54.557Z,3.55
2019-03-26T04:48:25.329Z,3.35
2019-03-26T04:50:54.947Z,3.90
2019-03-26T04:53:25.203Z,3.33
2019-03-26T04:55:55.100Z,3.60
2019-03-26T04:58:24.775Z,3.60
2019-03-26T05:00:55.512Z,3.83
2019-03-26T05:03:26.169Z,2.80
2019-03-26T05:05:56.022Z,3.37
2019-03-26T05:08:44.688Z,3.42
2019-03-26T05:11:14.544Z,3.00
2019-03-26T05:13:44.003Z,3.07
2019-03-26T05:16:13.724Z,4.03
2019-03-26T05:18:43.726Z,2.83
2019-03-26T05:21:13.317Z,2.37
2019-03-26T05:23:42.867Z,2.27
2019-03-26T05:26:12.872Z,2.47
2019-03-26T05:28:43.501Z,2.40
2019-03-26T05:31:14.083Z,2.20
2019-03-26T05:33:43.972Z,1.90
2019-03-26T05:36:13.788Z,2.30
2019-03-26T05:38:43.427Z,2.47
2019-03-26T05:41:13.031Z,2.70
2019-03-26T05:43:42.964Z,2.23
2019-03-26T05:46:12.596Z,2.05
2019-03-26T05:48:42.580Z,2.20
2019-03-26T05:51:12.252Z,1.95
2019-03-26T05:53:41.866Z,2.40
2019-03-26T05:56:12.000Z,2.20
2019-03-26T05:58:41.648Z,2.73
2019-03-26T06:01:11.303Z,2.67
2019-03-26T06:03:41.388Z,2.60
2019-03-26T06:06:11.848Z,2.23
2019-03-26T06:08:44.044Z,2.50
2019-03-26T06:11:13.871Z,2.67
2019-03-26T06:13:43.618Z,2.90
2019-03-26T06:16:16.440Z,3.00
2019-03-26T06:18:50.182Z,2.55
2019-03-26T06:21:19.751Z,3.20
2019-03-26T06:23:53.836Z,2.83
2019-03-26T06:26:23.860Z,3.03
2019-03-26T06:28:53.556Z,2.60
2019-03-26T06:31:23.452Z,2.50
2019-03-26T06:33:53.040Z,2.80
2019-03-26T06:36:23.356Z,2.80
2019-03-26T06:38:52.946Z,2.30
2019-03-26T06:41:22.638Z,2.33
2019-03-26T06:43:52.636Z,3.47
2019-03-26T06:46:22.237Z,3.13
2019-03-26T06:48:52.034Z,2.47
2019-03-26T06:51:21.620Z,2.67
2019-03-26T06:53:51.233Z,2.67
2019-03-26T06:56:23.001Z,2.47
2019-03-26T06:58:52.752Z,2.25
2019-03-26T07:01:22.576Z,2.57
2019-03-26T07:03:54.431Z,2.90
2019-03-26T07:06:24.308Z,2.97
2019-03-26T07:11:29.452Z,2.83
2019-03-26T07:13:59.608Z,2.70
2019-03-26T07:16:29.489Z,2.67
2019-03-26T07:19:00.601Z,2.52
2019-03-26T07:21:30.532Z,2.83
2019-03-26T07:24:00.144Z,2.87
2019-03-26T07:26:29.794Z,2.70
2019-03-26T07:28:59.747Z,2.53
2019-03-26T07:31:29.372Z,2.50
2019-03-26T07:33:59.606Z,1.97
2019-03-26T07:36:29.592Z,1.73
2019-03-26T07:38:59.584Z,2.42
2019-03-26T07:41:29.412Z,2.40
2019-03-26T07:43:59.431Z,2.30
2019-03-26T07:46:29.388Z,2.10
2019-03-26T07:48:59.009Z,2.33
2019-03-26T07:51:29.268Z,2.33
2019-03-26T07:53:58.865Z,3.40
2019-03-26T07:56:28.680Z,2.33
2019-03-26T07:58:58.360Z,2.63
2019-03-26T08:01:29.842Z,2.50
2019-03-26T08:03:59.521Z,3.77
2019-03-26T08:06:29.399Z,2.87
2019-03-26T08:08:59.169Z,2.30
2019-03-26T08:11:29.728Z,2.37
2019-03-26T08:13:59.360Z,3.13
2019-03-26T08:16:30.070Z,2.10
2019-03-26T08:18:59.668Z,2.50
2019-03-26T08:21:30.212Z,2.47
2019-03-26T08:24:00.189Z,2.80
2019-03-26T08:26:30.773Z,2.00
2019-03-26T08:29:01.098Z,1.83
2019-03-26T08:31:30.952Z,2.77
2019-03-26T08:34:00.842Z,2.43
2019-03-26T08:36:30.487Z,2.80
2019-03-26T08:39:00.463Z,2.63
2019-03-26T08:41:30.296Z,2.80
2019-03-26T08:43:59.920Z,2.70
2019-03-26T08:46:29.517Z,2.70
2019-03-26T08:48:59.784Z,2.13
2019-03-26T08:51:29.936Z,3.10
2019-03-26T08:53:59.573Z,2.40
2019-03-26T08:56:29.645Z,2.67
2019-03-26T08:59:01.144Z,2.50
2019-03-26T09:01:31.129Z,2.80
2019-03-26T09:04:00.828Z,3.83
2019-03-26T09:06:31.273Z,3.40
2019-03-26T09:09:00.980Z,2.83
2019-03-26T09:11:30.644Z,2.70
2019-03-26T09:14:00.316Z,2.90
2019-03-26T09:16:29.955Z,3.13
2019-03-26T09:19:00.045Z,3.20
2019-03-26T09:21:32.589Z,2.43
2019-03-26T09:24:02.418Z,2.70
2019-03-26T09:26:32.357Z,3.20
2019-03-26T09:29:02.990Z,2.33
2019-03-26T09:31:33.088Z,2.50
2019-03-26T09:34:02.724Z,2.50
2019-03-26T09:36:32.565Z,2.73
2019-03-26T09:39:02.284Z,2.37
2019-03-26T09:41:32.229Z,2.13
2019-03-26T09:44:01.948Z,2.37
2019-03-26T09:46:32.272Z,2.52
2019-03-26T09:49:02.011Z,2.43
2019-03-26T09:51:32.314Z,2.37
2019-03-26T09:54:02.635Z,2.60
2019-03-26T09:56:32.329Z,2.70
2019-03-26T09:59:02.294Z,2.87
2019-03-26T10:01:32.253Z,3.03
2019-03-26T10:04:05.538Z,2.60
2019-03-26T10:06:35.161Z,2.67
2019-03-26T10:09:06.992Z,2.17
2019-03-26T10:11:36.668Z,2.70
2019-03-26T10:14:06.622Z,2.65
2019-03-26T10:16:36.800Z,2.47
2019-03-26T10:19:06.746Z,2.60
2019-03-26T10:21:36.781Z,2.10
2019-03-26T10:24:06.636Z,2.20
2019-03-26T10:26:36.385Z,2.40
2019-03-26T10:29:23.898Z,2.30
2019-03-26T10:31:38.136Z,2.90
2019-03-26T10:34:08.043Z,3.37
2019-03-26T10:36:38.145Z,2.77
2019-03-26T10:39:09.456Z,3.10
2019-03-26T10:41:39.192Z,2.10
2019-03-26T10:44:08.996Z,2.80
2019-03-26T10:46:38.937Z,3.33
2019-03-26T10:49:09.080Z,2.70
2019-03-26T10:51:38.984Z,2.53
2019-03-26T10:54:08.680Z,2.53
2019-03-26T10:56:39.259Z,2.40
2019-03-26T10:59:08.876Z,3.03
2019-03-26T11:01:38.741Z,3.07
2019-03-26T11:04:11.446Z,2.80
2019-03-26T11:06:57.493Z,3.00
2019-03-26T11:09:41.677Z,2.30
2019-03-26T11:12:11.276Z,2.50
2019-03-26T11:14:42.102Z,2.17
2019-03-26T11:17:11.997Z,2.33
2019-03-26T11:19:41.640Z,2.40
2019-03-26T11:22:11.696Z,3.27
2019-03-26T11:24:41.312Z,1.97
2019-03-26T11:27:15.411Z,2.30
2019-03-26T11:29:45.795Z,2.53
2019-03-26T11:32:15.500Z,2.40
2019-03-26T11:37:20.601Z,1.80
2019-03-26T11:39:50.472Z,2.23
2019-03-26T11:42:23.493Z,2.10
2019-03-26T11:44:53.479Z,2.60
2019-03-26T11:47:24.576Z,2.08
2019-03-26T11:49:54.574Z,2.40
2019-03-26T11:52:24.428Z,1.77
2019-03-26T11:54:54.036Z,2.83
2019-03-26T11:57:23.655Z,2.43
2019-03-26T11:59:53.952Z,2.63
2019-03-26T12:02:27.840Z,2.63
2019-03-26T12:04:57.706Z,2.13
2019-03-26T12:07:27.665Z,2.30
2019-03-26T12:09:59.251Z,2.23
2019-03-26T12:12:29.368Z,1.97
2019-03-26T12:14:59.092Z,1.80
2019-03-26T12:17:29.763Z,1.80
2019-03-26T12:20:00.431Z,1.97
2019-03-26T12:22:31.423Z,2.73
2019-03-26T12:25:01.671Z,2.80
2019-03-26T12:27:31.327Z,2.73
2019-03-26T12:30:00.860Z,2.57
2019-03-26T12:32:33.107Z,2.40
2019-03-26T12:35:02.912Z,2.87
2019-03-26T12:37:32.896Z,2.70
2019-03-26T12:40:02.760Z,3.07
2019-03-26T12:45:07.981Z,2.90
2019-03-26T12:47:39.858Z,3.83
2019-03-26T12:50:09.559Z,2.80
2019-03-26T12:52:39.174Z,1.85
2019-03-26T12:55:08.788Z,2.30
2019-03-26T12:57:38.436Z,1.97
2019-03-26T13:00:11.096Z,2.20
2019-03-26T13:02:41.512Z,1.90
2019-03-26T13:05:11.198Z,2.37
2019-03-26T13:07:41.044Z,2.40
2019-03-26T13:10:14.137Z,2.10
2019-03-26T13:12:42.895Z,2.23
2019-03-26T13:15:12.582Z,2.10
2019-03-26T13:17:42.628Z,2.30
2019-03-26T13:20:12.372Z,2.67
2019-03-26T13:22:42.032Z,3.07
2019-03-26T13:25:12.212Z,2.77
2019-03-26T13:27:43.004Z,2.20
2019-03-26T13:30:12.716Z,2.40
2019-03-26T13:32:42.672Z,2.50
2019-03-26T13:35:12.466Z,2.20
2019-03-26T13:37:42.447Z,2.67
2019-03-26T13:40:26.277Z,2.00
2019-03-26T13:42:44.560Z,2.60
2019-03-26T13:45:15.127Z,2.10
2019-03-26T13:47:44.744Z,2.20
2019-03-26T13:50:14.627Z,2.37
2019-03-26T13:52:44.367Z,2.57
2019-03-26T13:55:14.622Z,2.60
2019-03-26T13:57:44.577Z,3.13
2019-03-26T14:00:15.739Z,2.25
2019-03-26T14:02:45.421Z,2.80
2019-03-26T14:05:25.212Z,2.80
2019-03-26T14:07:54.892Z,2.73
2019-03-26T14:10:24.865Z,2.83
2019-03-26T14:12:54.596Z,2.80
2019-03-26T14:15:24.232Z,4.10
2019-03-26T14:17:55.168Z,3.73
2019-03-26T14:20:24.912Z,3.90
2019-03-26T14:22:55.180Z,3.70
2019-03-26T14:25:25.228Z,4.00
2019-03-26T14:27:55.020Z,3.30
2019-03-26T14:30:38.816Z,3.40
2019-03-26T14:33:09.800Z,3.60
2019-03-26T14:35:39.620Z,3.60
2019-03-26T14:38:09.640Z,3.40
2019-03-26T14:40:39.520Z,3.13
2019-03-26T14:43:09.340Z,3.67
2019-03-26T14:45:42.228Z,3.63
2019-03-26T14:48:10.504Z,4.03
2019-03-26T14:50:40.120Z,3.50
2019-03-26T14:53:09.952Z,4.10
2019-03-26T14:55:39.656Z,4.07
2019-03-26T14:58:13.048Z,4.28
2019-03-26T15:00:44.439Z,3.77
2019-03-26T15:03:14.196Z,3.65
2019-03-26T15:05:43.787Z,4.00
2019-03-26T15:08:13.459Z,3.73
2019-03-26T15:10:43.419Z,3.57
2019-03-26T15:13:13.378Z,3.63
2019-03-26T15:15:43.045Z,3.40
2019-03-26T15:18:12.917Z,4.03
2019-03-26T15:20:42.975Z,3.80
2019-03-26T15:23:13.214Z,3.93
2019-03-26T15:25:46.624Z,3.67
2019-03-26T15:28:16.305Z,3.90
2019-03-26T15:30:46.480Z,4.87
2019-03-26T15:33:16.792Z,3.50
2019-03-26T15:35:46.624Z,3.30
2019-03-26T15:38:17.500Z,3.13
2019-03-26T15:40:47.401Z,3.55
2019-03-26T15:43:18.157Z,3.07
2019-03-26T15:45:49.939Z,3.57
2019-03-26T15:48:19.520Z,3.20
2019-03-26T15:50:49.868Z,3.20
2019-03-26T15:53:19.844Z,2.80
2019-03-26T15:55:50.703Z,3.30
2019-03-26T15:58:20.564Z,4.33
2019-03-26T16:00:50.169Z,3.50
2019-03-26T16:05:57.106Z,3.37
2019-03-26T16:08:27.068Z,3.40
2019-03-26T16:10:56.753Z,3.70
2019-03-26T16:13:26.780Z,3.10
2019-03-26T16:15:56.508Z,3.33
2019-03-26T16:18:26.768Z,3.10
2019-03-26T16:20:56.652Z,2.90
2019-03-26T16:23:26.548Z,2.83
2019-03-26T16:25:56.244Z,3.00
2019-03-26T16:28:26.041Z,2.92
2019-03-26T16:30:55.909Z,3.22
2019-03-26T16:33:25.631Z,2.30
2019-03-26T16:35:55.164Z,3.00
2019-03-26T16:38:24.732Z,2.60
2019-03-26T16:40:54.316Z,2.83
2019-03-26T16:43:25.481Z,3.10
2019-03-26T16:45:56.248Z,3.05
2019-03-26T16:48:26.202Z,2.87
2019-03-26T16:50:55.864Z,2.57
2019-03-26T16:53:25.505Z,2.13
2019-03-26T16:55:55.383Z,2.70
2019-03-26T16:58:25.504Z,2.50
2019-03-26T17:00:55.405Z,2.53
2019-03-26T17:03:31.089Z,2.50
2019-03-26T17:05:57.016Z,2.67
2019-03-26T17:08:26.672Z,2.70
2019-03-26T17:10:56.265Z,2.67
2019-03-26T17:13:27.220Z,2.43
2019-03-26T17:15:56.896Z,2.83
2019-03-26T17:18:26.812Z,2.65
2019-03-26T17:20:56.642Z,2.60
2019-03-26T17:23:26.233Z,2.83
2019-03-26T17:25:56.056Z,2.60
2019-03-26T17:28:26.076Z,2.93
2019-03-26T17:30:55.892Z,3.67
2019-03-26T17:33:28.900Z,2.87
2019-03-26T17:35:58.012Z,3.10
2019-03-26T17:38:27.723Z,3.10
2019-03-26T17:40:57.600Z,2.83
2019-03-26T17:43:27.240Z,3.03
2019-03-26T17:45:56.932Z,3.07
2019-03-26T17:48:26.555Z,3.10
2019-03-26T17:50:56.444Z,3.20
2019-03-26T17:53:26.064Z,2.90
2019-03-26T17:55:56.887Z,4.57
2019-03-26T17:58:26.498Z,3.30
2019-03-26T18:00:56.173Z,3.57
2019-03-26T18:03:27.097Z,3.17
2019-03-26T18:05:57.043Z,2.80
2019-03-26T18:08:26.898Z,3.40
2019-03-26T18:10:56.922Z,3.15
2019-03-26T18:13:26.870Z,2.70
2019-03-26T18:15:56.493Z,2.80
2019-03-26T18:18:28.028Z,2.80
2019-03-26T18:20:57.869Z,3.92
2019-03-26T18:23:27.552Z,3.27
2019-03-26T18:25:57.556Z,2.83
2019-03-26T18:28:27.593Z,2.83
2019-03-26T18:30:57.300Z,3.43
2019-03-26T18:33:27.702Z,3.10
2019-03-26T18:35:58.419Z,2.97
2019-03-26T18:38:29.133Z,3.70
2019-03-26T18:40:59.084Z,3.65
2019-03-26T18:43:28.972Z,3.37
2019-03-26T18:48:41.589Z,3.50
2019-03-26T18:51:11.328Z,2.80
2019-03-26T18:53:40.940Z,3.40
2019-03-26T18:56:13.814Z,2.90
2019-03-26T18:58:43.581Z,3.27
2019-03-26T19:01:13.517Z,3.30
2019-03-26T19:03:43.172Z,3.30
2019-03-26T19:06:13.032Z,3.60
2019-03-26T19:08:42.628Z,3.13
2019-03-26T19:11:12.532Z,3.33
2019-03-26T19:13:42.488Z,3.20
2019-03-26T19:16:13.600Z,3.40
2019-03-26T19:18:43.405Z,2.93
2019-03-26T19:21:13.160Z,3.83
2019-03-26T19:23:43.005Z,3.13
2019-03-26T19:26:12.617Z,3.70
2019-03-26T19:28:42.630Z,3.73
2019-03-26T19:31:12.203Z,3.60
2019-03-26T19:33:42.600Z,3.43
2019-03-26T19:36:12.249Z,3.50
2019-03-26T19:38:41.856Z,3.67
2019-03-26T19:41:11.718Z,3.27
2019-03-26T19:43:41.753Z,3.62
2019-03-26T19:46:11.500Z,3.70
2019-03-26T19:48:41.375Z,4.17
2019-03-26T19:51:11.348Z,3.87
2019-03-26T19:53:41.483Z,4.30
2019-03-26T19:56:11.164Z,3.50
2019-03-26T19:58:41.140Z,3.90
2019-03-26T20:01:10.732Z,4.10
2019-03-26T20:03:40.588Z,3.58
2019-03-26T20:06:13.866Z,3.40
2019-03-26T20:09:00.644Z,3.37
2019-03-26T20:11:30.248Z,3.70
2019-03-26T20:14:00.193Z,3.73
2019-03-26T20:16:41.374Z,4.00
2019-03-26T20:19:01.585Z,3.73
2019-03-26T20:21:31.240Z,4.40
2019-03-26T20:24:01.117Z,3.80
2019-03-26T20:26:31.109Z,4.10
2019-03-26T20:29:00.772Z,3.60
2019-03-26T20:31:30.584Z,4.03
2019-03-26T20:34:00.384Z,4.10
2019-03-26T20:36:30.016Z,4.00
2019-03-26T20:38:59.932Z,3.87
2019-03-26T20:41:29.671Z,4.55
2019-03-26T20:44:01.064Z,4.70
2019-03-26T20:46:30.980Z,4.23
2019-03-26T20:49:01.721Z,4.33
2019-03-26T20:51:31.584Z,5.17
2019-03-26T20:54:01.160Z,4.40
2019-03-26T20:56:31.355Z,4.53
2019-03-26T20:59:01.360Z,4.90
2019-03-26T21:01:32.173Z,4.40
2019-03-26T21:04:02.393Z,4.90
2019-03-26T21:06:37.023Z,5.00
2019-03-26T21:09:08.104Z,4.57
2019-03-26T21:11:37.828Z,4.83
2019-03-26T21:14:07.632Z,5.27
2019-03-26T21:16:38.536Z,5.53
2019-03-26T21:19:08.216Z,5.20
2019-03-26T21:21:37.911Z,5.00
2019-03-26T21:24:07.692Z,5.37
2019-03-26T21:26:38.360Z,5.00
2019-03-26T21:29:08.117Z,5.37
2019-03-26T21:31:38.073Z,5.27
2019-03-26T21:34:07.681Z,5.43
2019-03-26T21:36:37.569Z,5.27
2019-03-26T21:39:07.872Z,5.47
2019-03-26T21:41:37.828Z,5.13
2019-03-26T21:44:07.556Z,6.20
2019-03-26T21:46:37.768Z,5.67
2019-03-26T21:49:07.480Z,5.00
2019-03-26T21:51:37.292Z,5.50
2019-03-26T21:54:07.493Z,5.30
2019-03-26T21:56:37.320Z,5.43
2019-03-26T21:59:07.369Z,5.33
2019-03-26T22:01:40.932Z,5.37
2019-03-26T22:04:10.846Z,5.87
2019-03-26T22:06:40.440Z,6.03
2019-03-26T22:09:10.500Z,6.13
2019-03-26T22:11:49.778Z,4.80
2019-03-26T22:14:17.935Z,6.90
2019-03-26T22:16:43.376Z,5.63
2019-03-26T22:19:13.056Z,5.80
2019-03-26T22:21:42.601Z,6.07
2019-03-26T22:24:12.181Z,5.23
2019-03-26T22:26:42.188Z,5.57
2019-03-26T22:29:12.692Z,6.43
2019-03-26T22:31:42.288Z,5.70
2019-03-26T22:34:11.896Z,5.85
2019-03-26T22:36:41.699Z,5.90
2019-03-26T22:39:11.284Z,6.30
2019-03-26T22:41:41.032Z,6.23
2019-03-26T22:44:10.896Z,6.67
2019-03-26T22:46:41.157Z,6.53
2019-03-26T22:49:11.659Z,7.13
2019-03-26T22:51:41.320Z,6.17
2019-03-26T22:54:11.300Z,6.47
2019-03-26T22:56:41.156Z,6.95
2019-03-26T22:59:15.256Z,7.70
2019-03-26T23:01:45.132Z,6.45
2019-03-26T23:04:15.252Z,6.20
2019-03-26T23:06:44.933Z,6.40
2019-03-26T23:09:14.922Z,7.03
2019-03-26T23:11:44.561Z,6.30
2019-03-26T23:14:14.545Z,6.00
2019-03-26T23:16:44.132Z,7.17
2019-03-26T23:19:14.366Z,6.43
2019-03-26T23:21:44.001Z,6.47
2019-03-26T23:24:13.680Z,6.80
2019-03-26T23:26:43.356Z,7.73
2019-03-26T23:29:13.000Z,7.90
2019-03-26T23:31:42.624Z,7.77
2019-03-26T23:34:12.305Z,6.70
2019-03-26T23:36:42.005Z,7.23
2019-03-26T23:39:15.584Z,7.13
2019-03-26T23:41:45.173Z,6.90
2019-03-26T23:44:25.273Z,7.40
2019-03-26T23:46:47.010Z,6.97
2019-03-26T23:49:16.628Z,7.23
2019-03-26T23:51:46.564Z,7.80
2019-03-26T23:54:16.328Z,7.60
2019-03-26T23:56:46.158Z,7.83
2019-03-26T23:59:17.421Z,8.13
